Time;durP1;ratioP1;P1;durP2;ratioP2;P2;SDS_P1;SDS_P2;PMS_P1;PMS_P2;Temp;Humidity;BMP_temperature;BMP_pressure;BME280_temperature;BME280_humidity;BME280_pressure;Samples;Min_cycle;Max_cycle;Signal;HPM_P1;HPM_P2
2022/11/12 00:00:29;;;;;;;6.30;3.65;;;;;;;8.05;90.10;103232.38;5037693;27;96762;-31
2022/11/12 00:02:54;;;;;;;8.38;4.20;;;;;;;8.03;90.47;103239.63;5036356;27;98876;-31
2022/11/12 00:05:19;;;;;;;6.10;3.60;;;;;;;8.00;90.45;103245.03;5036740;27;109058;-30
2022/11/12 00:07:45;;;;;;;6.82;3.25;;;;;;;7.98;90.31;103241.44;5037489;27;96482;-31
2022/11/12 00:10:10;;;;;;;6.07;3.33;;;;;;;7.96;90.45;103245.06;5037213;28;100172;-31
2022/11/12 00:12:35;;;;;;;13.00;3.05;;;;;;;7.91;90.11;103245.13;5037288;27;97984;-30
2022/11/12 00:15:01;;;;;;;6.68;3.15;;;;;;;7.90;90.21;103245.16;5037227;27;97259;-30
2022/11/12 00:17:27;;;;;;;7.70;3.47;;;;;;;7.86;90.12;103233.50;5035820;28;96524;-31
2022/11/12 00:19:52;;;;;;;7.25;3.70;;;;;;;7.83;90.32;103233.56;5037597;27;96814;-31
2022/11/12 00:22:19;;;;;;;9.57;3.25;;;;;;;7.84;90.26;103238.03;5035264;28;101206;-31
2022/11/12 00:24:44;;;;;;;5.10;3.25;;;;;;;7.79;90.56;103237.19;5035677;28;101022;-30
2022/11/12 00:27:09;;;;;;;6.07;2.75;;;;;;;7.75;90.23;103230.94;5036944;27;96605;-31
2022/11/12 00:29:35;;;;;;;7.15;3.15;;;;;;;7.75;90.29;103236.34;5037163;27;96838;-30
2022/11/12 00:32:00;;;;;;;6.03;3.03;;;;;;;7.72;90.55;103232.78;5036960;27;98068;-31
2022/11/12 00:34:25;;;;;;;10.45;4.05;;;;;;;7.71;90.44;103233.69;5036881;27;97747;-31
2022/11/12 00:36:51;;;;;;;6.40;2.95;;;;;;;7.68;90.38;103234.63;5037193;27;96775;-30
2022/11/12 00:39:16;;;;;;;7.72;3.45;;;;;;;7.68;90.12;103239.13;5037143;27;96922;-30
2022/11/12 00:41:41;;;;;;;9.48;3.30;;;;;;;7.63;90.00;103237.38;5036646;28;99446;-30
2022/11/12 00:44:07;;;;;;;4.63;3.03;;;;;;;7.61;89.90;103247.28;5036834;27;96598;-31
2022/11/12 00:46:32;;;;;;;3.80;2.70;;;;;;;7.59;90.00;103251.78;5036755;27;96482;-31
2022/11/12 00:48:57;;;;;;;9.80;3.75;;;;;;;7.56;89.94;103245.53;5036952;27;96743;-30
2022/11/12 00:51:23;;;;;;;3.90;2.47;;;;;;;7.53;89.60;103243.78;5035969;27;99035;-31
2022/11/12 00:53:49;;;;;;;4.55;2.72;;;;;;;7.48;89.89;103239.31;5036491;27;98275;-32
2022/11/12 00:56:15;;;;;;;6.10;3.35;;;;;;;7.45;89.78;103242.94;5034147;27;96549;-31
2022/11/12 00:58:40;;;;;;;5.13;3.20;;;;;;;7.43;89.90;103242.06;5036656;27;96788;-32
2022/11/12 01:01:08;;;;;;;5.82;3.17;;;;;;;7.40;90.04;103240.28;5035165;28;97949;-31
2022/11/12 01:03:34;;;;;;;5.20;3.28;;;;;;;7.39;90.09;103243.91;5034633;27;101432;-31
2022/11/12 01:06:23;;;;;;;5.68;3.03;;;;;;;7.38;90.08;103246.59;5036685;27;96697;-31
2022/11/12 01:08:48;;;;;;;4.60;2.97;;;;;;;7.38;90.02;103254.69;5025220;28;96989;-30
2022/11/12 01:11:17;;;;;;;5.28;3.40;;;;;;;7.36;90.23;103251.13;5034508;28;100922;-31
2022/11/12 01:13:45;;;;;;;6.55;3.10;;;;;;;7.37;90.20;103244.84;5034686;28;100818;-32
2022/11/12 01:16:18;;;;;;;5.38;2.85;;;;;;;7.37;90.19;103244.84;5034197;28;96817;-31
2022/11/12 01:18:44;;;;;;;4.80;2.85;;;;;;;7.37;90.34;103253.81;5035040;28;96697;-31
2022/11/12 01:21:10;;;;;;;5.72;3.25;;;;;;;7.40;90.49;103250.19;5034040;27;101135;-31
2022/11/12 01:23:37;;;;;;;4.65;2.80;;;;;;;7.42;90.43;103262.75;5035870;27;99133;-31
2022/11/12 01:26:04;;;;;;;5.45;2.72;;;;;;;7.44;90.72;103260.03;5034762;28;96616;-31
2022/11/12 01:28:29;;;;;;;5.75;2.88;;;;;;;7.44;90.68;103260.03;5034840;28;96879;-30
2022/11/12 01:30:55;;;;;;;4.85;2.45;;;;;;;7.49;90.91;103274.38;5036001;27;97918;-30
2022/11/12 01:33:20;;;;;;;4.60;3.13;;;;;;;7.52;90.76;103262.66;5036403;27;99853;-32
2022/11/12 01:35:45;;;;;;;6.70;3.08;;;;;;;7.51;90.87;103250.06;5036146;27;96538;-31
2022/11/12 01:38:11;;;;;;;5.88;2.85;;;;;;;7.54;90.44;103256.34;5035981;27;96755;-31
2022/11/12 01:40:36;;;;;;;6.00;3.03;;;;;;;7.55;90.80;103239.22;5035417;27;97411;-31
2022/11/12 01:43:02;;;;;;;6.38;3.53;;;;;;;7.60;90.84;103242.81;5035840;27;97697;-31
2022/11/12 01:45:27;;;;;;;7.18;3.13;;;;;;;7.61;90.91;103235.59;5035995;28;96479;-30
2022/11/12 01:47:53;;;;;;;5.57;3.38;;;;;;;7.64;91.02;103230.16;5034461;28;96777;-30
2022/11/12 01:50:34;;;;;;;4.90;3.30;;;;;;;7.66;90.95;103234.63;5034814;28;97870;-31
2022/11/12 01:53:07;;;;;;;6.40;3.30;;;;;;;7.68;91.15;103242.72;5033960;28;102003;-31
2022/11/12 01:55:36;;;;;;;4.32;2.65;;;;;;;7.70;91.32;103240.91;5036126;27;96426;-31
2022/11/12 01:58:12;;;;;;;4.93;2.72;;;;;;;7.73;91.16;103239.97;5034757;28;96780;-31
2022/11/12 02:00:39;;;;;;;6.72;3.10;;;;;;;7.74;91.05;103244.44;5033893;28;101301;-32
2022/11/12 02:03:11;;;;;;;9.90;3.38;;;;;;;7.77;91.49;103245.31;5033567;27;100882;-31
2022/11/12 02:05:38;;;;;;;6.20;2.55;;;;;;;7.77;91.26;103241.69;5033946;28;96598;-30
2022/11/12 02:08:06;;;;;;;5.43;3.67;;;;;;;7.83;91.32;103252.44;5033824;28;96580;-30
2022/11/12 02:10:33;;;;;;;5.15;2.63;;;;;;;7.84;91.24;103238.03;5035155;27;99492;-32
2022/11/12 02:15:43;;;;;;;7.20;3.65;;;;;;;7.86;91.60;103225.41;5035369;28;96928;-31
2022/11/12 02:18:09;;;;;;;6.72;3.80;;;;;;;7.87;91.54;103222.72;5035633;27;96726;-31
2022/11/12 02:20:36;;;;;;;7.20;3.58;;;;;;;7.89;91.45;103217.31;5034444;28;99631;-31
2022/11/12 02:23:02;;;;;;;6.95;3.55;;;;;;;7.89;91.62;103220.00;5034061;28;100941;-31
2022/11/12 02:25:28;;;;;;;4.88;3.53;;;;;;;7.90;91.43;103213.69;5034071;28;96763;-30
2022/11/12 02:27:55;;;;;;;5.22;3.13;;;;;;;7.94;91.67;103223.53;5035098;28;96778;-31
2022/11/12 02:30:43;;;;;;;7.88;3.92;;;;;;;7.96;91.71;103218.09;5034348;27;97838;-30
2022/11/12 02:33:08;;;;;;;5.28;3.25;;;;;;;7.97;91.55;103220.78;5033599;28;100767;-31
2022/11/12 02:35:34;;;;;;;4.88;3.10;;;;;;;7.97;91.35;103218.09;5035262;27;96687;-31
2022/11/12 02:37:59;;;;;;;7.93;3.95;;;;;;;8.00;91.62;103222.53;5033734;28;97017;-31
2022/11/12 02:40:25;;;;;;;9.15;4.53;;;;;;;7.99;91.46;103216.25;5033664;28;97979;-31
2022/11/12 02:42:50;;;;;;;6.63;3.75;;;;;;;8.02;91.64;103223.44;5034864;27;97407;-30
2022/11/12 02:45:16;;;;;;;6.13;3.33;;;;;;;8.02;91.62;103208.13;5035274;27;96651;-31
2022/11/12 02:47:42;;;;;;;8.20;3.65;;;;;;;8.03;91.91;103209.94;5034065;27;96860;-30
2022/11/12 02:50:08;;;;;;;5.43;3.33;;;;;;;8.03;91.66;103203.59;5034879;27;97445;-31
2022/11/12 02:52:34;;;;;;;6.47;3.88;;;;;;;8.03;92.02;103200.91;5033376;28;100875;-31
2022/11/12 02:54:59;;;;;;;6.18;3.33;;;;;;;8.01;92.16;103202.75;5034771;27;96543;-32
2022/11/12 02:57:25;;;;;;;7.43;3.70;;;;;;;8.00;92.05;103206.34;5034886;28;96822;-30
2022/11/12 02:59:50;;;;;;;7.22;4.18;;;;;;;8.00;92.45;103209.06;5034333;28;99390;-30
2022/11/12 03:02:15;;;;;;;6.65;3.72;;;;;;;7.98;92.40;103206.38;5034051;27;99272;-31
2022/11/12 03:04:41;;;;;;;6.50;4.03;;;;;;;7.94;92.58;103207.34;5035304;27;96614;-31
2022/11/12 03:07:06;;;;;;;6.30;3.72;;;;;;;7.92;92.74;103213.66;5034699;27;96594;-31
2022/11/12 03:09:33;;;;;;;6.75;4.03;;;;;;;7.84;92.73;103198.47;5034475;27;97355;-32
2022/11/12 03:11:58;;;;;;;6.00;3.53;;;;;;;7.85;92.67;103208.34;5034545;28;99271;-32
2022/11/12 03:14:24;;;;;;;7.05;3.63;;;;;;;7.86;92.72;103209.22;5034592;27;96480;-31
2022/11/12 03:16:50;;;;;;;5.65;3.60;;;;;;;7.83;92.62;103201.16;5033127;28;96853;-32
2022/11/12 03:19:15;;;;;;;6.43;3.35;;;;;;;7.85;92.77;103208.34;5035862;27;97883;-30
2022/11/12 03:21:40;;;;;;;7.30;3.67;;;;;;;7.84;92.56;103209.25;5037250;27;99131;-31
2022/11/12 03:24:06;;;;;;;9.55;4.50;;;;;;;7.85;92.55;103202.06;5038418;27;96613;-30
2022/11/12 03:26:31;;;;;;;6.88;3.78;;;;;;;7.83;92.83;103209.25;5038247;28;96855;-31
2022/11/12 03:28:56;;;;;;;7.28;4.55;;;;;;;7.81;92.40;103209.28;5037708;28;101806;-32
2022/11/12 03:31:22;;;;;;;6.13;4.03;;;;;;;7.80;92.42;103214.72;5038130;27;97236;-31
2022/11/12 03:33:47;;;;;;;9.15;4.97;;;;;;;7.73;92.25;103208.47;5038070;27;96512;-31
2022/11/12 03:36:12;;;;;;;6.22;3.70;;;;;;;7.73;92.32;103213.88;5038215;27;96561;-31
2022/11/12 03:38:38;;;;;;;6.97;4.03;;;;;;;7.68;92.47;103210.34;5037459;28;107964;-32
2022/11/12 03:41:03;;;;;;;7.55;3.40;;;;;;;7.67;92.45;103211.25;5037418;27;99143;-31
2022/11/12 03:43:29;;;;;;;5.25;3.22;;;;;;;7.64;92.70;103209.47;5037226;28;96460;-31
2022/11/12 03:45:54;;;;;;;7.13;3.83;;;;;;;7.64;92.77;103214.88;5037712;27;96809;-31
2022/11/12 03:48:19;;;;;;;6.95;3.35;;;;;;;7.63;92.56;103218.50;5037600;27;98003;-32
2022/11/12 03:50:45;;;;;;;5.57;3.33;;;;;;;7.61;92.48;103212.22;5036164;28;100696;-31
2022/11/12 03:53:10;;;;;;;7.95;3.20;;;;;;;7.58;92.13;103212.25;5038046;28;96533;-30
2022/11/12 03:55:36;;;;;;;5.63;2.85;;;;;;;7.56;92.22;103211.38;5037592;27;96735;-31
2022/11/12 03:58:01;;;;;;;5.80;3.85;;;;;;;7.54;91.86;103221.28;5037621;27;97967;-31
2022/11/12 04:00:27;;;;;;;8.02;4.13;;;;;;;7.55;92.21;103212.25;5037369;27;99068;-31
2022/11/12 04:02:53;;;;;;;5.43;3.67;;;;;;;7.52;92.15;103204.22;5036055;27;96841;-31
2022/11/12 04:10:56;;;;;;;5.13;3.22;;;;;;;7.48;91.98;103212.34;5037746;28;97027;-30
2022/11/12 04:13:27;;;;;;;8.70;3.45;;;;;;;7.46;91.98;103209.69;5037661;27;96489;-32
2022/11/12 04:21:54;;;;;;;5.85;3.63;;;;;;;7.41;91.99;103215.13;5036493;28;97144;-30
2022/11/12 04:27:17;;;;;;;4.75;3.10;;;;;;;7.35;91.86;103207.09;5037750;28;96722;-30
2022/11/12 04:32:29;;;;;;;9.93;4.40;;;;;;;7.32;92.11;103212.53;5035694;28;96921;-32
2022/11/12 04:34:55;;;;;;;5.90;4.18;;;;;;;7.32;92.18;103203.56;5036366;28;96472;-31
2022/11/12 04:37:22;;;;;;;7.13;3.72;;;;;;;7.32;92.30;103198.16;5037092;27;96763;-31
2022/11/12 04:39:47;;;;;;;6.38;3.75;;;;;;;7.33;92.20;103197.22;5036574;28;97974;-30
2022/11/12 04:45:01;;;;;;;6.00;3.28;;;;;;;7.29;91.85;103190.06;5037233;27;96558;-32
2022/11/12 04:47:29;;;;;;;5.72;3.65;;;;;;;7.28;91.63;103196.38;5035402;28;96779;-31
2022/11/12 04:49:54;;;;;;;9.30;4.22;;;;;;;7.26;91.92;103200.91;5034900;28;99277;-30
2022/11/12 04:52:19;;;;;;;5.97;3.22;;;;;;;7.24;91.83;103192.81;5036779;28;104778;-31
2022/11/12 04:54:45;;;;;;;5.45;3.67;;;;;;;7.20;91.85;103183.88;5037015;27;96489;-31
2022/11/12 04:57:10;;;;;;;5.80;3.63;;;;;;;7.22;91.75;103194.63;5036728;27;96768;-30
2022/11/12 04:59:35;;;;;;;5.80;3.20;;;;;;;7.16;91.64;103183.94;5036208;27;97329;-30
2022/11/12 05:02:01;;;;;;;7.13;3.28;;;;;;;7.16;91.48;103192.91;5036339;27;97883;-30
2022/11/12 05:04:27;;;;;;;6.22;3.67;;;;;;;7.15;91.23;103188.44;5035295;28;96634;-30
2022/11/12 05:06:54;;;;;;;5.20;3.15;;;;;;;7.13;91.58;103183.97;5036583;27;96781;-32
2022/11/12 05:09:22;;;;;;;4.47;3.00;;;;;;;7.13;91.29;103190.25;5034821;28;101200;-32
2022/11/12 05:11:47;;;;;;;5.90;3.28;;;;;;;7.11;91.31;103189.34;5034787;28;101317;-30
2022/11/12 05:14:13;;;;;;;7.15;3.47;;;;;;;7.08;91.12;103183.09;5036304;27;96684;-31
2022/11/12 05:16:38;;;;;;;8.57;3.90;;;;;;;7.07;91.19;103181.31;5036612;27;96637;-32
2022/11/12 05:19:04;;;;;;;7.57;3.70;;;;;;;7.02;91.55;103181.34;5035743;27;99165;-31
2022/11/12 05:24:14;;;;;;;5.78;3.08;;;;;;;6.99;91.33;103176.00;5036037;28;96449;-31
2022/11/12 05:26:40;;;;;;;4.82;3.25;;;;;;;6.98;91.17;103179.59;5034802;28;96960;-31
2022/11/12 05:29:07;;;;;;;5.47;3.15;;;;;;;6.95;91.06;103171.53;5035983;27;97406;-31
2022/11/12 05:31:33;;;;;;;5.18;2.97;;;;;;;6.93;91.13;103176.03;5034296;28;100803;-31
2022/11/12 05:33:58;;;;;;;4.50;3.30;;;;;;;6.92;91.36;103171.56;5034715;28;96588;-31
2022/11/12 05:36:23;;;;;;;6.65;3.35;;;;;;;6.88;91.43;103164.41;5036037;27;96777;-31
2022/11/12 05:38:48;;;;;;;5.80;3.00;;;;;;;6.86;91.36;103168.91;5035573;28;104838;-30
2022/11/12 05:41:14;;;;;;;4.63;3.17;;;;;;;6.86;91.19;103175.19;5035344;27;99685;-30
2022/11/12 05:43:39;;;;;;;9.80;4.15;;;;;;;6.85;91.12;103168.03;5036160;27;96549;-31
2022/11/12 05:46:05;;;;;;;4.10;2.85;;;;;;;6.80;91.31;103165.38;5036045;27;96841;-30
2022/11/12 05:48:30;;;;;;;5.82;3.13;;;;;;;6.79;91.16;103168.06;5035119;27;97988;-31
2022/11/12 05:50:55;;;;;;;6.60;3.80;;;;;;;6.78;91.47;103169.88;5034268;28;98328;-32
2022/11/12 05:53:21;;;;;;;5.97;3.17;;;;;;;6.79;91.14;103170.78;5035789;27;96465;-30
2022/11/12 05:55:46;;;;;;;4.43;2.90;;;;;;;6.77;91.06;103180.69;5036181;27;96720;-32
2022/11/12 05:58:12;;;;;;;4.82;3.30;;;;;;;6.77;91.08;103180.69;5035410;27;99259;-31
2022/11/12 06:00:40;;;;;;;3.78;2.42;;;;;;;6.75;91.15;103185.19;5035426;27;97824;-30
2022/11/12 06:03:10;;;;;;;3.45;2.60;;;;;;;6.71;91.16;103178.91;5034018;27;96880;-31
2022/11/12 06:05:37;;;;;;;6.70;3.30;;;;;;;6.71;91.16;103187.00;5034734;28;96805;-30
2022/11/12 06:08:04;;;;;;;5.65;3.20;;;;;;;6.70;91.21;103184.34;5033820;28;101484;-31
2022/11/12 06:10:31;;;;;;;5.05;3.25;;;;;;;6.69;91.21;103191.50;5033840;27;100834;-31
2022/11/12 06:12:57;;;;;;;6.50;3.53;;;;;;;6.68;91.21;103188.84;5033748;28;96830;-31
2022/11/12 06:15:25;;;;;;;7.72;4.20;;;;;;;6.64;91.29;103182.56;5033805;28;96750;-30
2022/11/12 06:17:51;;;;;;;5.32;3.10;;;;;;;6.64;91.08;103190.63;5033648;28;100836;-31
2022/11/12 06:20:17;;;;;;;9.07;3.85;;;;;;;6.64;91.12;103193.34;5033061;28;100853;-30
2022/11/12 06:22:42;;;;;;;5.25;3.15;;;;;;;6.63;91.05;103196.94;5035395;27;96779;-30
2022/11/12 06:25:07;;;;;;;6.45;3.78;;;;;;;6.64;91.20;103204.09;5035066;28;100374;-31
2022/11/12 06:27:33;;;;;;;9.70;4.00;;;;;;;6.62;91.04;103203.22;5035102;27;97223;-32
2022/11/12 06:29:58;;;;;;;7.63;3.85;;;;;;;6.60;90.89;103199.63;5035249;28;98663;-30
2022/11/12 06:32:24;;;;;;;6.38;3.33;;;;;;;6.58;90.91;103183.50;5035229;27;96480;-31
2022/11/12 06:34:51;;;;;;;5.50;3.50;;;;;;;6.57;91.18;103192.47;5035320;27;96781;-30
2022/11/12 06:37:17;;;;;;;8.88;4.40;;;;;;;6.58;91.11;103196.09;5034812;28;97063;-31
2022/11/12 06:39:42;;;;;;;5.57;3.33;;;;;;;6.61;91.05;103204.13;5034878;28;97885;-30
2022/11/12 06:42:07;;;;;;;5.70;3.72;;;;;;;6.59;90.84;103201.44;5033837;28;96594;-31
2022/11/12 06:44:32;;;;;;;7.55;3.63;;;;;;;6.57;90.92;103199.66;5035151;27;96993;-31
2022/11/12 06:46:58;;;;;;;8.38;4.10;;;;;;;6.58;91.41;103207.75;5034231;27;110338;-31
2022/11/12 06:49:23;;;;;;;5.38;3.72;;;;;;;6.61;91.41;103212.22;5034574;27;105330;-31
2022/11/12 06:51:50;;;;;;;4.88;3.38;;;;;;;6.59;92.07;103200.56;5035041;27;96688;-31
2022/11/12 06:54:15;;;;;;;9.35;4.30;;;;;;;6.63;91.80;103198.75;5033958;28;96776;-30
2022/11/12 06:56:41;;;;;;;7.28;3.65;;;;;;;6.62;91.75;103207.72;5034682;28;97997;-30
2022/11/12 06:59:06;;;;;;;7.13;3.63;;;;;;;6.64;91.56;103219.38;5034210;27;98991;-30
2022/11/12 07:01:31;;;;;;;5.90;3.13;;;;;;;6.62;91.49;103216.69;5034117;27;96621;-32
2022/11/12 07:03:57;;;;;;;5.43;3.20;;;;;;;6.62;91.78;103207.72;5035012;27;96796;-31
2022/11/12 07:06:23;;;;;;;10.98;3.67;;;;;;;6.65;91.27;103221.16;5034626;27;97331;-33
2022/11/12 07:08:49;;;;;;;7.35;3.78;;;;;;;6.61;91.45;103209.53;5034478;27;97843;-31
2022/11/12 07:11:19;;;;;;;6.72;4.63;;;;;;;6.65;91.63;103213.06;5033455;28;96714;-30
2022/11/12 07:13:45;;;;;;;6.68;4.03;;;;;;;6.62;91.88;103205.03;5033293;28;96821;-30
2022/11/12 07:16:11;;;;;;;15.30;4.00;;;;;;;6.63;91.89;103207.72;5032657;28;104270;-32
2022/11/12 07:18:37;;;;;;;8.23;4.43;;;;;;;6.64;91.79;103222.06;5033331;28;101132;-32
2022/11/12 07:21:05;;;;;;;7.35;4.93;;;;;;;6.67;91.97;103230.13;5033930;28;96721;-30
2022/11/12 07:23:32;;;;;;;7.25;3.83;;;;;;;6.66;91.95;103222.97;5033200;28;96907;-31
2022/11/12 07:26:04;;;;;;;12.75;5.43;;;;;;;6.69;91.71;103223.81;5032361;28;100878;-30
2022/11/12 07:28:30;;;;;;;7.70;4.57;;;;;;;6.67;91.78;103219.34;5032839;28;100975;-31
2022/11/12 07:30:57;;;;;;;15.23;5.47;;;;;;;6.69;91.95;103225.63;5033490;28;96539;-30
2022/11/12 07:33:23;;;;;;;10.85;5.13;;;;;;;6.69;92.13;103221.13;5033000;28;96752;-31
2022/11/12 07:35:48;;;;;;;12.35;4.88;;;;;;;6.67;92.10;103213.97;5034260;27;97402;-30
2022/11/12 07:38:13;;;;;;;8.80;4.47;;;;;;;6.70;91.71;103222.94;5034138;27;97824;-30
2022/11/12 07:40:39;;;;;;;9.68;4.97;;;;;;;6.70;92.07;103225.63;5033942;27;96674;-30
2022/11/12 07:43:04;;;;;;;11.95;5.70;;;;;;;6.70;91.87;103222.03;5035138;27;96674;-30
2022/11/12 07:45:29;;;;;;;7.68;5.15;;;;;;;6.72;92.21;103223.81;5034097;27;97897;-30
2022/11/12 07:47:58;;;;;;;11.73;5.80;;;;;;;6.77;92.48;103227.38;5033799;27;99243;-30
2022/11/12 07:50:23;;;;;;;11.38;4.57;;;;;;;6.77;92.25;103223.78;5032567;28;96536;-31
2022/11/12 07:52:49;;;;;;;11.05;4.90;;;;;;;6.79;92.17;103224.63;5034085;27;96799;-30
2022/11/12 07:55:14;;;;;;;7.65;4.53;;;;;;;6.80;92.11;103221.94;5033697;27;97923;-31
2022/11/12 07:57:39;;;;;;;11.80;5.50;;;;;;;6.81;91.89;103218.34;5033886;27;97319;-30
2022/11/12 08:00:06;;;;;;;7.50;4.38;;;;;;;6.86;92.06;103233.56;5033847;28;96578;-31
2022/11/12 08:02:31;;;;;;;6.75;3.90;;;;;;;6.85;92.26;103230.00;5032649;28;97127;-31
2022/11/12 08:04:56;;;;;;;5.97;3.88;;;;;;;6.87;91.89;103233.56;5034920;28;99216;-31
2022/11/12 08:07:22;;;;;;;6.88;4.25;;;;;;;6.90;91.77;103230.84;5037696;27;97828;-30
2022/11/12 08:09:47;;;;;;;7.28;4.63;;;;;;;6.92;91.87;103237.13;5037441;27;96503;-30
2022/11/12 08:12:12;;;;;;;8.77;5.95;;;;;;;6.95;92.13;103236.19;5037606;27;96446;-30
2022/11/12 08:14:38;;;;;;;6.45;3.13;;;;;;;6.95;92.10;103236.19;5036794;27;97845;-31
2022/11/12 08:17:03;;;;;;;6.75;4.05;;;;;;;6.99;92.22;103240.66;5036646;28;106692;-32
2022/11/12 08:19:28;;;;;;;11.18;5.25;;;;;;;7.00;92.28;103240.63;5037225;27;96550;-30
2022/11/12 08:21:54;;;;;;;9.00;4.50;;;;;;;7.01;92.35;103239.75;5035242;28;99016;-31
2022/11/12 08:24:19;;;;;;;12.55;4.82;;;;;;;7.05;92.31;103239.72;5036751;27;99302;-30
2022/11/12 08:26:45;;;;;;;7.38;4.35;;;;;;;7.06;92.18;103237.03;5037472;27;96467;-31
2022/11/12 08:29:11;;;;;;;6.25;3.83;;;;;;;7.11;92.05;103237.88;5037376;27;96588;-31
2022/11/12 08:31:36;;;;;;;9.57;4.50;;;;;;;7.13;92.01;103245.94;5037661;28;96776;-30
2022/11/12 08:34:10;;;;;;;6.35;4.40;;;;;;;7.17;92.61;103239.59;5036883;27;97899;-30
2022/11/12 08:36:36;;;;;;;10.10;4.57;;;;;;;7.19;92.25;103241.38;5035377;28;101408;-31
2022/11/12 08:39:02;;;;;;;9.50;5.22;;;;;;;7.19;92.15;103230.59;5036459;28;96704;-30
2022/11/12 08:41:27;;;;;;;6.10;3.78;;;;;;;7.25;92.24;103231.47;5037072;28;96652;-30
2022/11/12 08:43:52;;;;;;;9.13;5.13;;;;;;;7.28;92.22;103231.44;5036700;28;97959;-30
2022/11/12 08:46:18;;;;;;;10.27;5.45;;;;;;;7.35;92.24;103235.88;5036825;27;105840;-31
2022/11/12 08:48:43;;;;;;;8.82;5.80;;;;;;;7.37;92.00;103239.44;5036532;27;98995;-31
2022/11/12 08:51:08;;;;;;;9.10;5.15;;;;;;;7.40;92.29;103245.69;5037036;27;96808;-31
2022/11/12 08:53:34;;;;;;;8.80;5.28;;;;;;;7.47;91.80;103246.53;5036240;27;99509;-30
2022/11/12 08:55:59;;;;;;;8.65;5.30;;;;;;;7.51;92.34;103247.38;5036767;28;97853;-30
2022/11/12 08:58:26;;;;;;;8.23;4.85;;;;;;;7.55;92.14;103246.44;5035547;27;96605;-30
2022/11/12 09:00:52;;;;;;;7.68;4.18;;;;;;;7.59;92.23;103249.09;5035247;28;96944;-30
2022/11/12 09:03:19;;;;;;;9.45;5.22;;;;;;;7.61;92.43;103241.88;5034323;27;101071;-30
2022/11/12 09:05:45;;;;;;;5.80;3.78;;;;;;;7.72;92.91;103252.53;5034848;28;100602;-31
2022/11/12 09:08:14;;;;;;;11.38;5.28;;;;;;;7.78;92.63;103251.59;5034961;28;96773;-30
2022/11/12 09:10:40;;;;;;;12.35;6.45;;;;;;;7.82;92.34;103247.97;5035127;28;96840;-31
2022/11/12 09:13:05;;;;;;;11.60;5.18;;;;;;;7.91;92.02;103252.34;5036194;27;97463;-30
2022/11/12 09:15:31;;;;;;;14.07;4.82;;;;;;;7.98;92.23;103240.56;5035475;27;99477;-30
2022/11/12 09:17:58;;;;;;;11.80;5.25;;;;;;;8.06;92.28;103244.06;5034327;28;96699;-30
2022/11/12 09:20:25;;;;;;;9.27;5.10;;;;;;;8.16;92.58;103236.75;5036401;27;96802;-32
2022/11/12 09:22:51;;;;;;;8.38;4.93;;;;;;;8.24;92.50;103245.63;5036167;27;97486;-32
2022/11/12 09:25:17;;;;;;;12.02;5.55;;;;;;;8.34;92.13;103243.69;5036078;28;97797;-30
2022/11/12 09:27:42;;;;;;;9.20;4.50;;;;;;;8.47;92.03;103248.94;5035638;27;96454;-30
2022/11/12 09:30:08;;;;;;;9.65;4.53;;;;;;;8.61;91.67;103245.16;5036250;27;96858;-30
2022/11/12 09:32:33;;;;;;;13.82;6.05;;;;;;;8.74;92.73;103238.66;5036158;27;97493;-31
2022/11/12 09:34:58;;;;;;;7.57;4.80;;;;;;;8.90;91.22;103237.50;5035646;27;99244;-30
2022/11/12 09:37:24;;;;;;;10.43;4.82;;;;;;;9.03;90.99;103237.28;5036034;27;96574;-30
2022/11/12 09:39:49;;;;;;;9.10;5.00;;;;;;;9.19;90.99;103230.72;5036123;27;96876;-31
2022/11/12 09:42:18;;;;;;;10.75;4.78;;;;;;;9.34;90.49;103227.75;5035763;28;97041;-30
2022/11/12 09:44:53;;;;;;;9.45;5.22;;;;;;;9.50;90.10;103233.75;5034555;28;103621;-30
2022/11/12 09:47:25;;;;;;;8.30;4.43;;;;;;;9.68;89.99;103234.34;5034742;28;96540;-31
2022/11/12 09:50:05;;;;;;;9.13;5.28;;;;;;;9.84;89.82;103233.09;5036032;28;96815;-30
2022/11/12 09:52:32;;;;;;;7.13;4.55;;;;;;;9.96;89.82;103235.56;5035160;27;98504;-31
2022/11/12 09:55:11;;;;;;;9.30;5.63;;;;;;;10.12;89.06;103230.72;5034059;28;101019;-32
2022/11/12 09:57:37;;;;;;;12.90;5.18;;;;;;;10.26;88.37;103226.81;5034369;28;96701;-32
2022/11/12 10:00:30;;;;;;;12.48;4.43;;;;;;;10.50;88.03;103239.84;5034431;28;96833;-30
2022/11/12 10:03:46;;;;;;;6.85;4.28;;;;;;;10.65;87.49;103235.88;5032243;27;97879;-30
2022/11/12 10:06:18;;;;;;;8.13;3.92;;;;;;;10.82;87.30;103238.19;5034998;27;102406;-30
2022/11/12 10:08:52;;;;;;;;;;;;;;;10.99;87.13;103241.41;5036234;27;96755;-31
2022/11/12 10:16:41;;;;;;;8.10;4.43;;;;;;;11.31;85.96;103238.78;5034561;28;97089;-30
2022/11/12 10:18:05;;;;;;;6.18;4.07;;;;;;;11.46;85.66;103243.81;5008998;27;98892;-30
2022/11/12 10:20:45;;;;;;;9.80;4.28;;;;;;;11.58;85.21;103229.00;5034400;27;96733;-30
2022/11/12 10:23:26;;;;;;;14.20;4.93;;;;;;;11.69;83.95;103230.50;5034124;28;96705;-31
2022/11/12 10:25:57;;;;;;;9.52;4.15;;;;;;;11.79;84.40;103231.13;5035218;27;97361;-30
2022/11/12 10:28:33;;;;;;;9.75;4.10;;;;;;;11.97;83.75;103237.91;5033364;27;100952;-30
2022/11/12 10:31:10;;;;;;;10.93;4.43;;;;;;;12.15;83.66;103227.41;5034041;28;96562;-30
2022/11/12 10:33:35;;;;;;;11.30;4.05;;;;;;;12.24;82.74;103229.88;5035203;27;96654;-30
2022/11/12 10:36:16;;;;;;;7.70;4.00;;;;;;;12.36;82.86;103242.19;5034955;27;97323;-30
2022/11/12 10:38:43;;;;;;;7.40;4.03;;;;;;;12.40;81.85;103243.88;5033895;28;100969;-30
2022/11/12 10:41:30;;;;;;;7.00;4.13;;;;;;;12.49;81.56;103239.06;5033783;28;96671;-31
2022/11/12 10:44:00;;;;;;;6.60;3.80;;;;;;;12.60;80.45;103252.28;5033753;28;96728;-30
2022/11/12 10:46:29;;;;;;;7.43;3.95;;;;;;;12.68;80.12;103238.44;5033067;28;100704;-31
2022/11/12 10:49:14;;;;;;;5.32;3.03;;;;;;;12.78;77.16;103239.97;5033353;28;100855;-31
2022/11/12 10:51:40;;;;;;;5.57;2.78;;;;;;;12.86;79.58;103237.88;5035326;27;96569;-31
2022/11/12 10:54:28;;;;;;;6.60;2.88;;;;;;;13.02;79.03;103231.94;5035288;27;96724;-30
2022/11/12 10:56:53;;;;;;;6.03;2.80;;;;;;;13.09;78.13;103239.81;5033384;28;98964;-32
2022/11/12 10:59:21;;;;;;;7.93;2.70;;;;;;;13.20;78.04;103233.13;5034389;27;99101;-30
2022/11/12 11:01:55;;;;;;;4.53;2.35;;;;;;;13.28;76.48;103233.81;5033345;28;96740;-32
2022/11/12 11:04:26;;;;;;;5.90;2.97;;;;;;;13.42;76.62;103242.38;5033620;27;96859;-31
2022/11/12 11:07:13;;;;;;;5.95;3.55;;;;;;;13.56;77.34;103237.31;5034306;27;99734;-31
2022/11/12 11:09:54;;;;;;;8.38;3.60;;;;;;;13.64;75.96;103228.00;5034707;28;98277;-30
2022/11/12 11:12:28;;;;;;;6.15;2.78;;;;;;;13.80;77.43;103227.38;5032999;28;96595;-30
2022/11/12 11:15:22;;;;;;;6.97;3.60;;;;;;;13.91;75.42;103223.34;5033322;28;96724;-30
2022/11/12 11:17:48;;;;;;;7.93;2.90;;;;;;;14.01;76.46;103222.97;5032990;28;100787;-31
2022/11/12 11:20:29;;;;;;;5.00;2.63;;;;;;;14.09;75.51;103199.97;5033740;27;97762;-31
2022/11/12 11:23:01;;;;;;;5.32;3.08;;;;;;;14.19;75.89;103206.84;5033382;28;96580;-31
2022/11/12 11:25:28;;;;;;;6.93;2.72;;;;;;;14.24;74.46;103200.25;5033351;28;96705;-31
2022/11/12 11:28:08;;;;;;;5.38;2.90;;;;;;;14.33;75.37;103200.84;5032665;28;101103;-30
2022/11/12 11:30:43;;;;;;;7.90;2.88;;;;;;;14.31;74.98;103195.44;5034583;27;99318;-30
2022/11/12 11:33:39;;;;;;;4.57;2.88;;;;;;;14.41;73.25;103185.94;5033214;28;96700;-33
2022/11/12 11:36:11;;;;;;;6.40;2.65;;;;;;;14.49;75.35;103190.19;5033280;28;96707;-31
2022/11/12 11:38:56;;;;;;;3.47;2.07;;;;;;;14.49;72.38;103176.56;5033927;27;98065;-31
2022/11/12 11:41:47;;;;;;;3.90;2.33;;;;;;;14.53;72.93;103178.22;5037655;27;97272;-32
2022/11/12 11:44:24;;;;;;;5.13;2.28;;;;;;;14.58;73.30;103174.38;5037925;28;96614;-30
2022/11/12 11:47:17;;;;;;;4.55;2.55;;;;;;;14.65;73.83;103172.28;5036521;28;96792;-31
2022/11/12 11:50:02;;;;;;;4.63;2.78;;;;;;;14.76;73.72;103174.59;5036192;28;100853;-32
2022/11/12 11:52:30;;;;;;;8.77;3.15;;;;;;;14.83;73.62;103167.91;5035994;27;100772;-31
2022/11/12 11:55:04;;;;;;;4.78;2.45;;;;;;;14.89;73.20;103159.44;5037964;27;96695;-30
2022/11/12 11:57:45;;;;;;;5.93;2.60;;;;;;;14.88;71.92;103143.16;5038291;28;96649;-31
2022/11/12 12:00:22;;;;;;;6.03;2.50;;;;;;;14.92;71.94;103144.78;5035972;28;100975;-30
2022/11/12 12:03:45;;;;;;;5.07;2.40;;;;;;;15.00;71.57;103135.31;5037090;28;99802;-30